Главная страница
METAR-TAF:

METAR-TAF

Аэропорты :

Сиирт, Турция

широта: 37-58-41N, долгота: 41-50-21E, высота над уровнем моря: 610 м

Текущие метеонаблюдения

Эта сводка был подготовлена 11 часа и 3 минут назад, в 12:50 UTC
Ветер 8 Узел от западный
Температура 27°C
Влажность 34%
Давление 1019 hPa
Видимость 10 км и более
небольшая облачность на высоте 4000 фута
Рассеянная облачность на высоте 20000 фута

METAR: LTCL 181250Z 26008KT 9999 FEW040 BKN200 27/10 Q1019

Время: 02:53 (23:53 UTC)

Прогноз

Эта сводка был подготовлена 10 часа и 13 минут назад, в 13:40 UTC
Прогноз действительный с 18-го 15 UTC до 18-го 24 UTC
Ветер 2 Узел переменных направлений
Видимость 10 км и более
небольшая облачность на высоте 4000 фута
Рассеянная облачность на высоте 20000 фута
изменения
С 18-го 15 UTC до 18-го 17 UTC
Видимость 10 км и более
Нет облачности ниже 1500 м, и нет кучево-дождевой облачности

TAF: LTCL 181340Z 1815/1824 VRB02KT 9999 FEW040 BKN200 BECMG 1815/1817 CAVOK

Метеонаблюдения и прогнозы для более 4000 аэропортов (сводки METAR и TAF).

Имеющиеся станции представлены на карте желтыми и красными точками.

Чтобы увидеть название станции, наведите на нее мышь.

Затем щелкните, чтобы увидеть метеонаблюдения и метеопрогнозы.

Управление картой: чтобы увеличить масштаб, щелкните зеленые кнопки с черным крестиком; чтобы уменьшить масштаб, щелкните зеленую кнопку с тире; для просмотра соседних карт щелкайте зеленые стрелки.


METAR-TAF: